createdAt,value
2023-03-31T00:00:53.928Z,6.83
2023-03-31T00:03:24.117Z,5.27
2023-03-31T00:05:58.317Z,5.77
2023-03-31T00:08:30.766Z,7.47
2023-03-31T00:11:02.096Z,6.13
2023-03-31T00:13:30.681Z,5.90
2023-03-31T00:15:59.353Z,9.33
2023-03-31T00:18:27.810Z,7.43
2023-03-31T00:20:58.573Z,7.53
2023-03-31T00:23:28.973Z,6.33
2023-03-31T00:25:57.367Z,9.30
2023-03-31T00:28:27.215Z,6.80
2023-03-31T00:30:55.620Z,9.50
2023-03-31T00:33:23.873Z,5.60
2023-03-31T00:35:53.265Z,6.70
2023-03-31T00:38:22.110Z,7.10
2023-03-31T00:40:53.344Z,9.90
2023-03-31T00:43:40.839Z,6.60
2023-03-31T00:46:15.513Z,10.33
2023-03-31T00:48:48.205Z,8.70
2023-03-31T00:51:16.772Z,8.33
2023-03-31T00:53:45.397Z,9.63
2023-03-31T00:56:15.488Z,5.10
2023-03-31T00:58:45.892Z,6.23
2023-03-31T01:01:19.342Z,5.17
2023-03-31T01:03:48.379Z,7.87
2023-03-31T01:06:19.892Z,8.80
2023-03-31T01:08:48.922Z,5.37
2023-03-31T01:11:18.644Z,7.83
2023-03-31T01:13:50.253Z,6.03
2023-03-31T01:16:20.130Z,6.07
2023-03-31T01:18:49.829Z,7.57
2023-03-31T01:21:36.354Z,7.63
2023-03-31T01:24:27.086Z,7.63
2023-03-31T01:26:58.546Z,7.17
2023-03-31T01:29:40.784Z,4.90
2023-03-31T01:32:20.832Z,7.07
2023-03-31T01:35:04.875Z,5.77
2023-03-31T01:37:43.056Z,7.53
2023-03-31T01:40:32.364Z,7.87
2023-03-31T01:43:06.682Z,7.67
2023-03-31T01:45:40.159Z,5.23
2023-03-31T01:48:13.033Z,6.80
2023-03-31T01:50:44.853Z,5.40
2023-03-31T01:53:17.156Z,6.40
2023-03-31T01:55:48.450Z,9.07
2023-03-31T01:58:21.300Z,6.27
2023-03-31T02:00:52.299Z,11.47
2023-03-31T02:03:24.292Z,7.57
2023-03-31T02:05:54.479Z,6.63
2023-03-31T02:08:24.713Z,8.73
2023-03-31T02:10:53.542Z,6.97
2023-03-31T02:13:24.703Z,5.07
2023-03-31T02:15:55.061Z,7.63
2023-03-31T02:18:26.027Z,6.57
2023-03-31T02:20:57.339Z,5.57
2023-03-31T02:23:29.473Z,7.63
2023-03-31T02:26:01.514Z,7.73
2023-03-31T02:28:31.760Z,9.00
2023-03-31T02:31:06.308Z,6.83
2023-03-31T02:33:35.381Z,4.77
2023-03-31T02:36:04.721Z,5.87
2023-03-31T02:38:35.107Z,7.70
2023-03-31T02:41:03.710Z,7.10
2023-03-31T02:43:33.558Z,6.40
2023-03-31T02:46:02.271Z,5.80
2023-03-31T02:48:32.555Z,6.13
2023-03-31T02:51:14.458Z,9.10
2023-03-31T02:53:51.045Z,6.40
2023-03-31T02:56:28.514Z,7.60
2023-03-31T02:59:04.445Z,5.40
2023-03-31T03:01:43.566Z,5.43
2023-03-31T03:04:17.264Z,6.40
2023-03-31T03:06:53.986Z,7.53
2023-03-31T03:09:36.830Z,7.30
2023-03-31T03:12:10.581Z,9.43
2023-03-31T03:14:42.108Z,5.87
2023-03-31T03:17:12.372Z,6.27
2023-03-31T03:19:42.943Z,5.63
2023-03-31T03:22:11.541Z,8.67
2023-03-31T03:24:39.984Z,9.07
2023-03-31T03:27:08.271Z,8.93
2023-03-31T03:29:36.688Z,8.80
2023-03-31T03:32:06.639Z,6.00
2023-03-31T03:34:35.015Z,9.47
2023-03-31T03:37:03.285Z,7.53
2023-03-31T03:39:31.667Z,8.63
2023-03-31T03:41:59.996Z,7.17
2023-03-31T03:44:28.445Z,8.57
2023-03-31T03:46:57.113Z,10.27
2023-03-31T03:49:26.826Z,10.73
2023-03-31T03:51:55.323Z,8.13
2023-03-31T03:54:23.868Z,5.20
2023-03-31T03:56:52.276Z,8.10
2023-03-31T03:59:20.641Z,7.20
2023-03-31T04:01:49.108Z,8.13
2023-03-31T04:04:17.617Z,8.20
2023-03-31T04:06:47.732Z,8.50
2023-03-31T04:09:16.107Z,8.40
2023-03-31T04:11:44.568Z,7.23
2023-03-31T04:14:12.936Z,8.30
2023-03-31T04:16:42.852Z,8.47
2023-03-31T04:19:13.191Z,8.30
2023-03-31T04:21:45.510Z,9.03
2023-03-31T04:24:16.014Z,8.23
2023-03-31T04:26:44.308Z,9.83
2023-03-31T04:29:13.773Z,7.47
2023-03-31T04:31:44.147Z,9.17
2023-03-31T04:34:14.156Z,9.10
2023-03-31T04:36:47.324Z,10.40
2023-03-31T04:39:18.160Z,12.40
2023-03-31T04:41:47.246Z,11.73
2023-03-31T04:44:20.560Z,10.03
2023-03-31T04:46:49.381Z,7.20
2023-03-31T04:49:17.856Z,10.47
2023-03-31T04:51:46.298Z,7.57
2023-03-31T04:54:14.978Z,6.47
2023-03-31T04:56:44.660Z,9.37
2023-03-31T04:59:13.378Z,11.90
2023-03-31T05:01:45.536Z,13.10
2023-03-31T05:04:14.376Z,12.97
2023-03-31T05:06:42.642Z,13.27
2023-03-31T05:09:11.012Z,9.83
2023-03-31T05:11:39.341Z,10.20
2023-03-31T05:14:09.006Z,10.17
2023-03-31T05:16:37.311Z,8.27
2023-03-31T05:19:05.945Z,8.73
2023-03-31T05:21:34.500Z,9.47
2023-03-31T05:24:03.808Z,9.03
2023-03-31T05:26:58.977Z,11.87
2023-03-31T05:29:43.370Z,10.87
2023-03-31T05:32:13.268Z,9.47
2023-03-31T05:34:44.499Z,14.67
2023-03-31T05:37:24.264Z,10.40
2023-03-31T05:39:52.914Z,7.43
2023-03-31T05:42:21.649Z,10.83
2023-03-31T05:44:52.374Z,10.37
2023-03-31T05:47:23.216Z,14.77
2023-03-31T05:49:53.171Z,9.53
2023-03-31T05:52:22.438Z,8.83
2023-03-31T05:54:53.263Z,10.47
2023-03-31T05:57:21.636Z,12.53
2023-03-31T05:59:50.155Z,10.80
2023-03-31T06:02:20.828Z,10.87
2023-03-31T06:04:50.690Z,14.13
2023-03-31T06:07:19.283Z,9.53
2023-03-31T06:09:47.668Z,12.37
2023-03-31T06:12:15.970Z,11.27
2023-03-31T06:14:44.420Z,8.77
2023-03-31T06:17:12.945Z,10.83
2023-03-31T06:19:41.396Z,12.77
2023-03-31T06:22:11.231Z,9.33
2023-03-31T06:24:39.826Z,9.07
2023-03-31T06:27:08.294Z,7.33
2023-03-31T06:29:36.683Z,7.60
2023-03-31T06:32:06.130Z,11.27
2023-03-31T06:34:34.582Z,6.40
2023-03-31T06:37:13.020Z,7.90
2023-03-31T06:39:44.665Z,8.23
2023-03-31T06:42:15.718Z,11.07
2023-03-31T06:44:44.159Z,6.27
2023-03-31T06:47:12.607Z,7.30
2023-03-31T06:50:59.786Z,7.07
2023-03-31T06:53:28.448Z,10.87
2023-03-31T06:55:58.418Z,9.23
2023-03-31T06:58:28.452Z,8.57
2023-03-31T07:00:59.067Z,7.30
2023-03-31T07:06:59.963Z,6.63
2023-03-31T07:09:28.418Z,10.20
2023-03-31T07:12:12.524Z,5.80
2023-03-31T07:14:41.169Z,6.47
2023-03-31T07:21:05.756Z,11.03
2023-03-31T07:23:36.742Z,6.77
2023-03-31T07:29:26.599Z,9.10
2023-03-31T07:34:37.711Z,12.77
2023-03-31T07:37:27.945Z,8.40
2023-03-31T07:49:31.163Z,10.13
2023-03-31T07:52:14.888Z,6.90
2023-03-31T08:01:38.621Z,9.13
2023-03-31T08:04:07.288Z,8.67
2023-03-31T08:06:37.538Z,12.40
2023-03-31T08:09:07.329Z,9.10
2023-03-31T08:15:26.541Z,6.63
2023-03-31T08:18:00.130Z,11.43
2023-03-31T08:21:10.131Z,10.47
2023-03-31T08:23:44.114Z,9.43
2023-03-31T08:26:15.773Z,8.57
2023-03-31T08:28:46.671Z,11.57
2023-03-31T08:31:16.638Z,11.87
2023-03-31T08:33:49.118Z,8.10
2023-03-31T08:36:19.830Z,11.23
2023-03-31T08:38:50.743Z,8.53
2023-03-31T08:41:29.397Z,8.30
2023-03-31T08:44:01.189Z,7.07
2023-03-31T08:46:30.890Z,7.13
2023-03-31T08:49:03.162Z,7.67
2023-03-31T08:51:33.514Z,5.20
2023-03-31T08:54:09.127Z,6.10
2023-03-31T08:56:43.183Z,6.50
2023-03-31T08:59:19.372Z,8.27
2023-03-31T09:01:58.313Z,4.70
2023-03-31T09:04:37.912Z,4.27
2023-03-31T09:07:10.679Z,7.23
2023-03-31T09:09:45.703Z,7.43
2023-03-31T09:12:18.711Z,4.70
2023-03-31T09:14:53.079Z,3.30
2023-03-31T09:17:24.287Z,5.13
2023-03-31T09:19:59.540Z,4.63
2023-03-31T09:22:32.286Z,3.17
2023-03-31T09:25:16.707Z,4.17
2023-03-31T09:27:48.136Z,5.00
2023-03-31T09:30:20.384Z,4.13
2023-03-31T09:39:48.290Z,4.20
2023-03-31T09:42:19.795Z,6.40
2023-03-31T09:44:50.227Z,6.00
2023-03-31T09:47:22.773Z,7.83
2023-03-31T09:49:54.121Z,3.53
2023-03-31T09:52:28.527Z,3.47
2023-03-31T09:54:58.111Z,6.00
2023-03-31T09:57:42.397Z,4.17
2023-03-31T10:00:18.225Z,2.90
2023-03-31T10:02:50.264Z,3.07
2023-03-31T10:05:25.181Z,3.27
2023-03-31T10:07:54.658Z,2.80
2023-03-31T10:10:30.277Z,2.47
2023-03-31T10:13:02.320Z,3.57
2023-03-31T10:15:33.557Z,4.93
2023-03-31T10:18:24.567Z,4.37
2023-03-31T10:20:53.148Z,4.07
2023-03-31T10:23:26.905Z,2.47
2023-03-31T10:25:56.072Z,3.33
2023-03-31T10:28:26.743Z,2.97
2023-03-31T10:30:56.287Z,3.33
2023-03-31T10:33:25.793Z,3.07
2023-03-31T10:35:57.792Z,3.30
2023-03-31T10:38:46.816Z,3.40
2023-03-31T10:41:23.316Z,3.97
2023-03-31T10:43:54.629Z,5.70
2023-03-31T10:46:23.574Z,4.27
2023-03-31T10:48:53.234Z,3.83
2023-03-31T10:51:22.789Z,7.70
2023-03-31T10:53:52.838Z,5.67
2023-03-31T10:56:36.352Z,2.90
2023-03-31T10:59:26.122Z,5.50
2023-03-31T11:02:00.772Z,4.77
2023-03-31T11:05:04.001Z,4.63
2023-03-31T11:07:41.612Z,3.17
2023-03-31T11:10:23.252Z,5.87
2023-03-31T11:12:54.751Z,4.43
2023-03-31T11:15:27.798Z,5.40
2023-03-31T11:18:03.855Z,4.13
2023-03-31T11:23:39.932Z,5.20
2023-03-31T11:26:11.923Z,4.93
2023-03-31T11:28:45.048Z,4.83
2023-03-31T11:31:46.307Z,2.10
2023-03-31T11:34:29.289Z,2.27
2023-03-31T11:37:41.749Z,4.10
2023-03-31T11:40:26.024Z,1.33
2023-03-31T11:42:58.908Z,3.30
2023-03-31T11:45:33.037Z,1.60
2023-03-31T11:48:08.192Z,3.97
2023-03-31T11:50:40.199Z,2.70
2023-03-31T11:53:16.846Z,2.80
2023-03-31T11:55:45.888Z,3.70
2023-03-31T11:58:17.818Z,1.97
2023-03-31T12:00:47.561Z,4.20
2023-03-31T12:03:22.260Z,2.93
2023-03-31T12:05:53.035Z,3.10
2023-03-31T12:08:26.180Z,2.10
2023-03-31T12:10:57.339Z,3.17
2023-03-31T12:13:33.937Z,3.97
2023-03-31T12:16:09.991Z,2.23
2023-03-31T12:18:44.831Z,1.80
2023-03-31T12:21:14.365Z,1.27
2023-03-31T12:23:46.489Z,2.07
2023-03-31T12:26:21.117Z,3.00
2023-03-31T12:28:50.970Z,1.47
2023-03-31T12:31:22.613Z,1.97
2023-03-31T12:33:56.064Z,1.97
2023-03-31T12:36:29.577Z,6.03
2023-03-31T12:39:04.096Z,1.70
2023-03-31T12:41:35.568Z,2.87
2023-03-31T12:44:15.573Z,1.67
2023-03-31T12:47:01.537Z,2.07
2023-03-31T12:49:38.881Z,3.60
2023-03-31T12:52:10.086Z,1.60
2023-03-31T12:54:52.015Z,2.03
2023-03-31T12:57:23.618Z,2.67
2023-03-31T13:00:12.666Z,2.70
2023-03-31T13:02:41.663Z,1.67
2023-03-31T13:05:26.018Z,4.93
2023-03-31T13:07:56.258Z,4.53
2023-03-31T13:10:29.561Z,4.33
2023-03-31T13:13:00.759Z,1.90
2023-03-31T13:18:06.640Z,1.10
2023-03-31T13:20:37.893Z,3.13
2023-03-31T13:23:09.594Z,1.77
2023-03-31T13:25:48.530Z,1.37
2023-03-31T13:28:19.082Z,2.97
2023-03-31T13:30:52.266Z,3.40
2023-03-31T13:33:26.638Z,1.50
2023-03-31T13:35:58.994Z,1.17
2023-03-31T13:38:34.075Z,3.40
2023-03-31T13:41:08.219Z,1.47
2023-03-31T13:43:45.783Z,1.30
2023-03-31T13:46:26.779Z,2.93
2023-03-31T13:48:59.452Z,2.43
2023-03-31T13:51:34.103Z,3.40
2023-03-31T13:54:18.343Z,2.30
2023-03-31T13:56:51.962Z,1.97
2023-03-31T13:59:25.160Z,2.83
2023-03-31T14:02:07.990Z,3.70
2023-03-31T14:04:48.668Z,5.13
2023-03-31T14:07:19.874Z,2.10
2023-03-31T14:09:54.161Z,1.10
2023-03-31T14:12:23.796Z,5.27
2023-03-31T14:14:54.989Z,3.37
2023-03-31T14:17:24.453Z,1.00
2023-03-31T14:20:00.229Z,1.77
2023-03-31T14:22:36.021Z,1.00
2023-03-31T14:25:11.135Z,3.60
2023-03-31T14:30:18.845Z,1.90
2023-03-31T14:32:53.020Z,1.97
2023-03-31T14:35:26.770Z,2.93
2023-03-31T14:38:00.562Z,3.60
2023-03-31T14:40:30.842Z,1.97
2023-03-31T14:42:59.680Z,1.30
2023-03-31T14:45:31.653Z,1.70
2023-03-31T14:48:04.133Z,4.93
2023-03-31T14:50:36.181Z,1.53
2023-03-31T14:53:05.372Z,2.17
2023-03-31T14:55:49.782Z,0.90
2023-03-31T14:58:28.668Z,1.80
2023-03-31T15:00:57.500Z,1.17
2023-03-31T15:03:27.880Z,0.93
2023-03-31T15:05:59.983Z,0.60
2023-03-31T15:08:31.452Z,0.70
2023-03-31T15:13:46.958Z,1.13
2023-03-31T15:16:29.762Z,3.20
2023-03-31T15:19:02.835Z,1.27
2023-03-31T15:21:36.022Z,1.47
2023-03-31T15:24:06.688Z,0.77
2023-03-31T15:26:42.149Z,1.20
2023-03-31T15:29:18.958Z,2.30
2023-03-31T15:31:52.902Z,1.53
2023-03-31T15:34:26.372Z,1.63
2023-03-31T15:36:57.403Z,1.50
2023-03-31T15:39:31.144Z,2.87
2023-03-31T15:42:02.665Z,1.73
2023-03-31T15:44:47.334Z,1.67
2023-03-31T15:47:19.356Z,2.07
2023-03-31T15:49:54.298Z,1.20
2023-03-31T15:52:33.359Z,0.70
2023-03-31T15:55:02.993Z,2.97
2023-03-31T15:57:37.381Z,2.13
2023-03-31T16:00:30.215Z,2.67
2023-03-31T16:03:00.255Z,3.33
2023-03-31T16:08:31.888Z,1.40
2023-03-31T16:11:07.916Z,1.03
2023-03-31T16:13:51.317Z,3.00
2023-03-31T16:16:25.604Z,1.47
2023-03-31T16:19:04.643Z,1.77
2023-03-31T16:21:41.449Z,2.97
2023-03-31T16:24:10.773Z,3.30
2023-03-31T16:26:39.671Z,2.10
2023-03-31T16:29:11.526Z,2.50
2023-03-31T16:31:43.381Z,2.90
2023-03-31T16:34:13.361Z,1.80
2023-03-31T16:36:41.461Z,3.03
2023-03-31T16:39:10.573Z,2.90
2023-03-31T16:41:42.937Z,3.90
2023-03-31T16:57:36.726Z,2.37
2023-03-31T17:00:08.973Z,3.67
2023-03-31T17:02:39.619Z,2.53
2023-03-31T17:05:13.815Z,1.53
2023-03-31T17:07:45.086Z,1.83
2023-03-31T17:10:15.265Z,0.63
2023-03-31T17:12:46.687Z,0.50
2023-03-31T17:15:17.545Z,2.37
2023-03-31T17:17:48.371Z,2.20
2023-03-31T17:20:19.331Z,1.03
2023-03-31T17:22:48.783Z,1.97
2023-03-31T17:27:50.540Z,4.00
2023-03-31T17:30:20.111Z,3.87
2023-03-31T17:32:51.498Z,1.93
2023-03-31T17:35:22.807Z,2.10
2023-03-31T17:37:54.874Z,3.57
2023-03-31T17:40:37.248Z,1.27
2023-03-31T17:43:10.573Z,1.57
2023-03-31T17:45:39.836Z,1.13
2023-03-31T17:48:09.976Z,1.23
2023-03-31T17:50:39.452Z,3.67
2023-03-31T17:53:09.456Z,1.37
2023-03-31T17:56:02.699Z,1.93
2023-03-31T17:58:33.959Z,1.43
2023-03-31T18:01:02.669Z,1.93
2023-03-31T18:03:31.573Z,2.20
2023-03-31T18:06:06.740Z,3.30
2023-03-31T18:08:36.782Z,1.37
2023-03-31T18:11:10.643Z,1.27
2023-03-31T18:14:17.166Z,1.23
2023-03-31T18:16:49.246Z,2.30
2023-03-31T18:19:26.130Z,1.47
2023-03-31T18:21:56.663Z,2.67
2023-03-31T18:24:25.621Z,1.77
2023-03-31T18:26:55.691Z,1.27
2023-03-31T18:29:24.568Z,1.90
2023-03-31T18:31:57.439Z,2.97
2023-03-31T18:34:27.476Z,1.60
2023-03-31T18:36:55.823Z,3.60
2023-03-31T18:39:24.223Z,1.13
2023-03-31T18:41:53.594Z,2.27
2023-03-31T18:44:21.778Z,2.20
2023-03-31T18:46:49.970Z,0.97
2023-03-31T18:49:20.958Z,1.50
2023-03-31T18:51:49.334Z,0.90
2023-03-31T18:54:18.076Z,1.40
2023-03-31T18:56:46.508Z,1.30
2023-03-31T18:59:15.405Z,2.63
2023-03-31T19:01:43.837Z,2.30
2023-03-31T19:04:14.935Z,2.13
2023-03-31T19:06:44.863Z,1.60
2023-03-31T19:09:13.157Z,2.90
2023-03-31T19:11:41.824Z,2.93
2023-03-31T19:14:10.349Z,1.63
2023-03-31T19:16:42.982Z,3.40
2023-03-31T19:19:11.656Z,1.70
2023-03-31T19:21:41.708Z,2.93
2023-03-31T19:24:14.410Z,3.30
2023-03-31T19:26:43.585Z,3.57
2023-03-31T19:29:12.032Z,4.93
2023-03-31T19:31:41.809Z,1.43
2023-03-31T19:34:12.868Z,1.93
2023-03-31T19:36:42.407Z,3.07
2023-03-31T19:39:13.107Z,2.07
2023-03-31T19:41:41.884Z,4.43
2023-03-31T19:44:10.072Z,2.03
2023-03-31T19:46:38.352Z,3.27
2023-03-31T19:49:13.806Z,2.57
2023-03-31T19:51:42.340Z,2.83
2023-03-31T19:54:13.782Z,1.63
2023-03-31T19:56:46.830Z,2.40
2023-03-31T19:59:15.342Z,1.43
2023-03-31T20:01:44.993Z,3.30
2023-03-31T20:04:17.310Z,2.00
2023-03-31T20:06:47.587Z,2.87
2023-03-31T20:09:22.119Z,1.50
2023-03-31T20:11:50.474Z,3.60
2023-03-31T20:14:19.618Z,1.63
2023-03-31T20:16:48.684Z,4.83
2023-03-31T20:19:16.860Z,0.77
2023-03-31T20:21:46.770Z,3.07
2023-03-31T20:24:27.945Z,2.30
2023-03-31T20:27:03.475Z,4.60
2023-03-31T20:29:32.798Z,3.53
2023-03-31T20:32:17.487Z,1.73
2023-03-31T20:34:46.196Z,3.43
2023-03-31T20:37:15.674Z,3.00
2023-03-31T20:39:45.496Z,3.80
2023-03-31T20:42:26.530Z,6.67
2023-03-31T20:44:54.679Z,1.80
2023-03-31T20:47:23.217Z,1.87
2023-03-31T20:49:51.468Z,3.17
2023-03-31T20:52:19.780Z,3.33
2023-03-31T20:54:47.941Z,2.13
2023-03-31T20:57:18.049Z,2.73
2023-03-31T20:59:46.297Z,3.90
2023-03-31T21:02:15.531Z,4.20
2023-03-31T21:04:43.902Z,2.73
2023-03-31T21:07:12.613Z,5.30
2023-03-31T21:09:41.375Z,1.87
2023-03-31T21:12:10.068Z,4.33
2023-03-31T21:14:39.817Z,4.53
2023-03-31T21:17:08.630Z,2.20
2023-03-31T21:19:37.284Z,4.47
2023-03-31T21:22:06.782Z,5.13
2023-03-31T21:24:37.475Z,2.40
2023-03-31T21:27:06.866Z,4.80
2023-03-31T21:29:38.815Z,3.63
2023-03-31T21:32:11.031Z,2.00
2023-03-31T21:34:40.305Z,2.77
2023-03-31T21:37:11.195Z,2.13
2023-03-31T21:39:40.942Z,2.47
2023-03-31T21:42:09.320Z,1.93
2023-03-31T21:44:38.566Z,2.10
2023-03-31T21:47:11.648Z,6.73
2023-03-31T21:49:40.275Z,3.40
2023-03-31T21:52:08.694Z,2.67
2023-03-31T21:54:51.409Z,2.70
2023-03-31T21:57:20.225Z,1.10
2023-03-31T21:59:48.498Z,2.03
2023-03-31T22:02:18.263Z,2.97
2023-03-31T22:04:46.935Z,3.30
2023-03-31T22:07:15.433Z,1.73
2023-03-31T22:09:45.774Z,1.10
2023-03-31T22:12:15.353Z,1.03
2023-03-31T22:14:48.028Z,0.90
2023-03-31T22:17:21.497Z,1.60
2023-03-31T22:19:50.702Z,1.97
2023-03-31T22:22:20.243Z,0.63
2023-03-31T22:24:48.535Z,0.73
2023-03-31T22:27:20.036Z,0.80
2023-03-31T22:29:50.233Z,0.70
2023-03-31T22:32:21.364Z,1.07
2023-03-31T22:34:50.784Z,1.43
2023-03-31T22:40:06.509Z,0.97
2023-03-31T22:42:37.838Z,0.83
2023-03-31T22:45:07.006Z,1.83
2023-03-31T22:47:42.439Z,1.60
2023-03-31T22:50:12.533Z,0.53
2023-03-31T22:52:41.854Z,1.23
2023-03-31T22:55:11.331Z,2.00
2023-03-31T22:57:40.445Z,1.43
2023-03-31T23:00:10.798Z,0.70
2023-03-31T23:02:43.235Z,1.03
2023-03-31T23:05:12.301Z,1.67
2023-03-31T23:07:40.436Z,4.83
2023-03-31T23:10:09.811Z,0.60
2023-03-31T23:12:38.519Z,2.87
2023-03-31T23:15:07.438Z,0.70
2023-03-31T23:17:36.645Z,1.07
2023-03-31T23:20:31.467Z,1.03
2023-03-31T23:23:12.104Z,0.67
2023-03-31T23:25:42.722Z,0.90
2023-03-31T23:28:28.543Z,0.70
2023-03-31T23:30:59.394Z,2.47
2023-03-31T23:33:30.214Z,0.87
2023-03-31T23:36:03.912Z,2.17
2023-03-31T23:38:32.519Z,3.57
2023-03-31T23:41:02.481Z,1.00
2023-03-31T23:43:32.643Z,0.90
2023-03-31T23:46:02.909Z,0.60
2023-03-31T23:48:31.556Z,2.10
2023-03-31T23:51:04.782Z,1.10
2023-03-31T23:53:47.219Z,1.43
2023-03-31T23:56:17.110Z,1.20
2023-03-31T23:58:45.842Z,0.67
